createdAt,value
2023-02-15T00:00:30.340Z,0.75
2023-02-15T00:02:58.974Z,0.84
2023-02-15T00:05:30.607Z,0.79
2023-02-15T00:07:58.967Z,0.76
2023-02-15T00:10:28.276Z,0.70
2023-02-15T00:12:56.530Z,0.72
2023-02-15T00:15:26.931Z,0.72
2023-02-15T00:17:56.724Z,0.68
2023-02-15T00:20:25.062Z,0.72
2023-02-15T00:22:56.012Z,0.74
2023-02-15T00:25:24.312Z,0.58
2023-02-15T00:27:53.586Z,0.49
2023-02-15T00:30:23.136Z,0.60
2023-02-15T00:32:52.200Z,0.60
2023-02-15T00:35:20.547Z,0.67
2023-02-15T00:37:49.977Z,0.59
2023-02-15T00:40:20.090Z,0.69
2023-02-15T00:42:48.840Z,0.66
2023-02-15T00:45:17.447Z,0.52
2023-02-15T00:47:47.776Z,0.42
2023-02-15T00:50:17.605Z,0.47
2023-02-15T00:52:48.622Z,0.59
2023-02-15T00:55:17.532Z,0.64
2023-02-15T00:57:47.715Z,0.59
2023-02-15T01:00:16.461Z,0.59
2023-02-15T01:02:46.292Z,0.50
2023-02-15T01:05:14.765Z,0.37
2023-02-15T01:07:43.447Z,0.25
2023-02-15T01:10:12.472Z,0.33
2023-02-15T01:12:40.796Z,0.26
2023-02-15T01:15:11.223Z,0.31
2023-02-15T01:17:39.936Z,0.37
2023-02-15T01:20:09.881Z,0.47
2023-02-15T01:22:38.200Z,0.36
2023-02-15T01:25:07.353Z,0.37
2023-02-15T01:27:36.084Z,0.21
2023-02-15T01:30:06.670Z,0.11
2023-02-15T01:32:36.393Z,0.10
2023-02-15T01:35:05.070Z,0.11
2023-02-15T01:37:34.198Z,0.13
2023-02-15T01:40:03.284Z,0.13
2023-02-15T01:42:32.061Z,0.08
2023-02-15T01:45:02.597Z,0.02
2023-02-15T01:47:38.179Z,0.12
2023-02-15T01:50:14.695Z,0.19
2023-02-15T01:52:49.614Z,0.28
2023-02-15T01:55:18.605Z,0.22
2023-02-15T01:57:48.916Z,0.20
2023-02-15T02:00:18.984Z,0.26
2023-02-15T02:02:53.406Z,0.34
2023-02-15T02:05:28.367Z,0.33
2023-02-15T02:07:59.374Z,0.34
2023-02-15T02:10:28.238Z,0.30
2023-02-15T02:13:02.055Z,0.20
2023-02-15T02:15:41.091Z,0.11
2023-02-15T02:18:26.183Z,0.07
2023-02-15T02:21:45.199Z,-0.07
2023-02-15T02:24:48.966Z,-0.19
2023-02-15T02:27:28.074Z,-0.25
2023-02-15T02:30:41.279Z,-0.09
2023-02-15T02:33:40.605Z,0.02
2023-02-15T02:36:18.374Z,0.10
2023-02-15T02:39:02.872Z,0.11
2023-02-15T02:41:39.266Z,0.10
2023-02-15T02:44:15.772Z,0.07
2023-02-15T02:46:52.136Z,-0.01
2023-02-15T02:49:35.704Z,0.04
2023-02-15T02:52:06.657Z,0.15
2023-02-15T02:54:37.864Z,0.19
2023-02-15T02:57:11.098Z,0.26
2023-02-15T02:59:48.480Z,0.32
2023-02-15T03:02:22.687Z,0.30
2023-02-15T03:04:59.921Z,0.16
2023-02-15T03:07:30.687Z,0.02
2023-02-15T03:10:04.283Z,-0.01
2023-02-15T03:12:35.097Z,-0.12
2023-02-15T03:15:09.978Z,-0.04
2023-02-15T03:17:44.509Z,0.03
2023-02-15T03:20:17.959Z,0.05
2023-02-15T03:22:51.075Z,-0.04
2023-02-15T03:25:24.452Z,-0.22
2023-02-15T03:27:58.188Z,-0.40
2023-02-15T03:30:28.753Z,-0.48
2023-02-15T03:33:01.408Z,-0.40
2023-02-15T03:35:38.503Z,-0.46
2023-02-15T03:38:11.490Z,-0.42
2023-02-15T03:40:59.779Z,-0.44
2023-02-15T03:43:35.710Z,-0.42
2023-02-15T03:46:10.741Z,-0.28
2023-02-15T03:48:43.493Z,-0.19
2023-02-15T03:51:35.362Z,-0.11
2023-02-15T03:54:09.550Z,-0.10
2023-02-15T03:56:39.903Z,-0.10
2023-02-15T03:59:27.156Z,0.02
2023-02-15T04:02:08.637Z,0.09
2023-02-15T04:04:38.971Z,0.11
2023-02-15T04:07:10.862Z,0.01
2023-02-15T04:09:57.094Z,0.02
2023-02-15T04:12:26.478Z,0.11
2023-02-15T04:15:12.298Z,0.14
2023-02-15T04:17:41.602Z,0.21
2023-02-15T04:20:28.322Z,0.18
2023-02-15T04:23:16.516Z,0.17
2023-02-15T04:25:44.927Z,0.19
2023-02-15T04:28:14.781Z,0.20
2023-02-15T04:30:43.133Z,0.13
2023-02-15T04:33:12.348Z,0.15
2023-02-15T04:35:40.659Z,0.13
2023-02-15T04:38:11.377Z,0.10
2023-02-15T04:40:39.840Z,0.16
2023-02-15T04:43:08.664Z,0.17
2023-02-15T04:45:37.041Z,-0.01
2023-02-15T04:48:06.030Z,0.20
2023-02-15T04:50:34.337Z,0.31
2023-02-15T04:53:02.726Z,0.39
2023-02-15T04:55:32.883Z,0.41
2023-02-15T04:58:01.228Z,0.41
2023-02-15T05:00:30.151Z,0.40
2023-02-15T05:02:58.512Z,0.43
2023-02-15T05:05:27.639Z,0.45
2023-02-15T05:07:56.075Z,0.42
2023-02-15T05:10:24.938Z,0.46
2023-02-15T05:12:54.780Z,0.47
2023-02-15T05:15:24.946Z,0.48
2023-02-15T05:17:53.791Z,0.44
2023-02-15T05:20:22.149Z,0.37
2023-02-15T05:22:51.043Z,0.30
2023-02-15T05:25:36.899Z,0.36
2023-02-15T05:28:22.822Z,0.33
2023-02-15T05:31:02.261Z,0.23
2023-02-15T05:33:31.243Z,0.25
2023-02-15T05:36:01.355Z,0.28
2023-02-15T05:38:31.212Z,0.18
2023-02-15T05:41:00.344Z,0.15
2023-02-15T05:43:30.448Z,0.19
2023-02-15T05:45:59.406Z,0.12
2023-02-15T05:48:29.418Z,0.08
2023-02-15T05:51:02.104Z,0.07
2023-02-15T05:53:32.521Z,0.07
2023-02-15T05:56:01.618Z,-0.03
2023-02-15T05:58:34.875Z,-0.01
2023-02-15T06:01:10.057Z,-0.02
2023-02-15T06:03:38.920Z,-0.07
2023-02-15T06:06:07.979Z,-0.06
2023-02-15T06:08:38.621Z,-0.01
2023-02-15T06:11:07.917Z,0.01
2023-02-15T06:13:38.988Z,-0.04
2023-02-15T06:16:08.371Z,-0.02
2023-02-15T06:18:37.057Z,-0.06
2023-02-15T06:21:05.947Z,0.01
2023-02-15T06:23:34.289Z,-0.08
2023-02-15T06:26:02.831Z,-0.10
2023-02-15T06:28:32.497Z,-0.09
2023-02-15T06:31:02.288Z,-0.10
2023-02-15T06:33:34.718Z,-0.14
2023-02-15T06:36:05.138Z,-0.05
2023-02-15T06:38:33.606Z,0.04
2023-02-15T06:41:02.070Z,-0.09
2023-02-15T06:43:30.472Z,-0.34
2023-02-15T06:46:01.166Z,-0.41
2023-02-15T06:48:31.085Z,-0.44
2023-02-15T06:51:00.394Z,-0.52
2023-02-15T06:53:28.765Z,-0.42
2023-02-15T06:56:04.828Z,-0.38
2023-02-15T06:58:33.174Z,-0.32
2023-02-15T07:01:01.631Z,-0.22
2023-02-15T07:03:32.601Z,-0.10
2023-02-15T07:06:03.480Z,-0.03
2023-02-15T07:08:32.651Z,0.07
2023-02-15T07:11:21.479Z,0.01
2023-02-15T07:13:50.262Z,-0.10
2023-02-15T07:16:18.670Z,-0.17
2023-02-15T07:18:49.804Z,-0.29
2023-02-15T07:21:18.210Z,-0.38
2023-02-15T07:23:47.569Z,-0.39
2023-02-15T07:26:15.936Z,-0.39
2023-02-15T07:28:45.913Z,-0.29
2023-02-15T07:31:14.275Z,-0.28
2023-02-15T07:33:43.342Z,-0.30
2023-02-15T07:36:13.930Z,-0.29
2023-02-15T07:38:44.079Z,-0.33
2023-02-15T07:41:14.932Z,-0.53
2023-02-15T07:43:45.003Z,-0.55
2023-02-15T07:46:17.890Z,-0.52
2023-02-15T07:48:47.300Z,-0.53
2023-02-15T07:51:17.888Z,-0.46
2023-02-15T07:53:46.740Z,-0.27
2023-02-15T07:56:17.142Z,-0.32
2023-02-15T07:58:56.594Z,-0.42
2023-02-15T08:01:28.260Z,-0.43
2023-02-15T08:03:57.895Z,-0.57
2023-02-15T08:06:32.039Z,-0.67
2023-02-15T08:09:01.772Z,-0.81
2023-02-15T08:11:33.967Z,-0.80
2023-02-15T08:14:05.546Z,-0.84
2023-02-15T08:16:36.757Z,-0.92
2023-02-15T08:19:08.636Z,-0.77
2023-02-15T08:21:40.269Z,-0.76
2023-02-15T08:24:10.662Z,-0.71
2023-02-15T08:26:42.195Z,-0.56
2023-02-15T08:29:12.124Z,-0.58
2023-02-15T08:31:42.338Z,-0.62
2023-02-15T08:34:12.382Z,-0.43
2023-02-15T08:36:46.096Z,-0.49
2023-02-15T08:39:15.909Z,-0.57
2023-02-15T08:41:46.760Z,-0.72
2023-02-15T08:44:17.238Z,-0.44
2023-02-15T08:46:47.885Z,-0.37
2023-02-15T08:49:19.526Z,-0.29
2023-02-15T08:51:50.124Z,-0.29
2023-02-15T08:54:20.984Z,-0.17
2023-02-15T08:56:49.977Z,-0.21
2023-02-15T08:59:21.806Z,-0.10
2023-02-15T09:01:51.639Z,0.02
2023-02-15T09:04:20.223Z,0.14
2023-02-15T09:06:51.147Z,0.26
2023-02-15T09:09:21.896Z,0.16
2023-02-15T09:11:56.819Z,0.01
2023-02-15T09:14:28.453Z,0.11
2023-02-15T09:16:57.146Z,0.20
2023-02-15T09:19:26.812Z,0.19
2023-02-15T09:21:56.536Z,0.06
2023-02-15T09:24:25.716Z,0.01
2023-02-15T09:26:54.533Z,-0.03
2023-02-15T09:29:24.087Z,0.04
2023-02-15T09:31:54.473Z,0.07
2023-02-15T09:34:24.366Z,0.27
2023-02-15T09:36:53.087Z,0.30
2023-02-15T09:39:25.054Z,0.45
2023-02-15T09:42:29.388Z,0.54
2023-02-15T09:45:09.337Z,0.55
2023-02-15T09:47:55.858Z,0.58
2023-02-15T09:50:36.384Z,0.57
2023-02-15T09:53:21.984Z,0.41
2023-02-15T09:56:01.215Z,0.64
2023-02-15T09:58:41.242Z,0.72
2023-02-15T10:01:20.983Z,0.74
2023-02-15T10:04:22.510Z,0.76
2023-02-15T10:07:04.070Z,0.74
2023-02-15T10:09:41.624Z,0.77
2023-02-15T10:12:36.876Z,0.79
2023-02-15T10:15:29.378Z,0.75
2023-02-15T10:18:18.018Z,0.60
2023-02-15T10:20:56.935Z,0.57
2023-02-15T10:23:52.915Z,0.57
2023-02-15T10:26:23.859Z,0.68
2023-02-15T10:28:59.903Z,0.85
2023-02-15T10:31:36.507Z,0.91
2023-02-15T10:34:18.142Z,1.02
2023-02-15T10:37:09.500Z,0.73
2023-02-15T10:39:48.073Z,0.82
2023-02-15T10:42:29.595Z,0.90
2023-02-15T10:45:13.617Z,0.79
2023-02-15T10:48:01.361Z,1.04
2023-02-15T10:50:45.621Z,1.04
2023-02-15T10:53:34.064Z,0.97
2023-02-15T10:56:13.488Z,0.99
2023-02-15T10:58:59.719Z,0.99
2023-02-15T11:01:37.071Z,1.17
2023-02-15T11:04:22.329Z,1.35
2023-02-15T11:06:55.215Z,1.45
2023-02-15T11:09:27.662Z,1.51
2023-02-15T11:12:01.019Z,1.53
2023-02-15T11:14:40.030Z,1.49
2023-02-15T11:17:16.645Z,1.63
2023-02-15T11:19:55.183Z,1.82
2023-02-15T11:22:24.406Z,1.89
2023-02-15T11:24:55.461Z,1.98
2023-02-15T11:27:27.997Z,2.00
2023-02-15T11:30:02.795Z,2.00
2023-02-15T11:32:35.914Z,2.01
2023-02-15T11:35:12.785Z,2.10
2023-02-15T11:37:47.074Z,2.15
2023-02-15T11:40:25.734Z,2.10
2023-02-15T11:42:57.636Z,2.12
2023-02-15T11:45:31.144Z,2.20
2023-02-15T11:48:02.712Z,2.21
2023-02-15T11:50:34.289Z,2.06
2023-02-15T11:53:06.944Z,2.00
2023-02-15T11:55:36.087Z,2.04
2023-02-15T11:58:12.239Z,1.98
2023-02-15T12:00:44.528Z,2.03
2023-02-15T12:03:23.385Z,1.92
2023-02-15T12:05:58.389Z,2.04
2023-02-15T12:08:27.756Z,2.15
2023-02-15T12:11:02.847Z,2.16
2023-02-15T12:13:31.594Z,2.19
2023-02-15T12:16:10.511Z,2.22
2023-02-15T12:18:45.230Z,2.16
2023-02-15T12:21:16.280Z,2.32
2023-02-15T12:23:50.139Z,2.18
2023-02-15T12:26:27.632Z,2.28
2023-02-15T12:29:03.532Z,2.28
2023-02-15T12:31:36.034Z,2.36
2023-02-15T12:34:14.755Z,2.36
2023-02-15T12:36:47.197Z,2.37
2023-02-15T12:39:22.252Z,2.48
2023-02-15T12:42:03.097Z,2.49
2023-02-15T12:44:35.135Z,2.48
2023-02-15T12:47:05.804Z,2.47
2023-02-15T12:49:37.007Z,2.53
2023-02-15T12:52:09.319Z,2.35
2023-02-15T12:54:41.498Z,2.25
2023-02-15T12:57:31.838Z,2.11
2023-02-15T13:00:03.503Z,2.03
2023-02-15T13:02:39.336Z,2.14
2023-02-15T13:05:20.741Z,2.15
2023-02-15T13:07:52.907Z,2.10
2023-02-15T13:10:26.474Z,2.14
2023-02-15T13:12:55.954Z,2.15
2023-02-15T13:15:29.160Z,2.23
2023-02-15T13:17:59.648Z,2.41
2023-02-15T13:20:30.525Z,2.40
2023-02-15T13:23:05.644Z,2.36
2023-02-15T13:25:42.457Z,2.45
2023-02-15T13:28:17.237Z,2.43
2023-02-15T13:30:48.041Z,2.53
2023-02-15T13:33:22.024Z,2.73
2023-02-15T13:36:01.630Z,2.79
2023-02-15T13:38:52.329Z,2.90
2023-02-15T13:41:25.794Z,2.92
2023-02-15T13:44:04.658Z,2.80
2023-02-15T13:46:51.074Z,2.86
2023-02-15T13:49:34.875Z,2.87
2023-02-15T13:52:15.663Z,2.87
2023-02-15T13:55:16.110Z,2.92
2023-02-15T13:58:28.834Z,2.93
2023-02-15T14:01:10.902Z,2.85
2023-02-15T14:04:10.613Z,2.67
2023-02-15T14:06:51.231Z,2.71
2023-02-15T14:09:33.417Z,2.88
2023-02-15T14:12:15.884Z,2.98
2023-02-15T14:15:02.409Z,2.85
2023-02-15T14:17:45.565Z,2.98
2023-02-15T14:20:22.032Z,3.07
2023-02-15T14:22:56.822Z,3.02
2023-02-15T14:25:31.632Z,3.06
2023-02-15T14:28:07.780Z,2.96
2023-02-15T14:30:41.644Z,2.88
2023-02-15T14:33:17.459Z,2.88
2023-02-15T14:35:46.514Z,2.96
2023-02-15T14:38:21.405Z,3.01
2023-02-15T14:41:04.182Z,2.82
2023-02-15T14:43:43.839Z,2.92
2023-02-15T14:46:22.211Z,3.06
2023-02-15T14:48:53.326Z,3.03
2023-02-15T14:51:58.214Z,2.97
2023-02-15T14:54:55.126Z,2.95
2023-02-15T14:57:28.592Z,3.00
2023-02-15T14:59:59.294Z,3.01
2023-02-15T15:02:32.026Z,2.52
2023-02-15T15:05:10.552Z,3.15
2023-02-15T15:07:46.545Z,3.24
2023-02-15T15:10:40.825Z,3.26
2023-02-15T15:13:53.504Z,3.23
2023-02-15T15:16:49.304Z,3.06
2023-02-15T15:19:57.191Z,3.13
2023-02-15T15:22:27.532Z,3.17
2023-02-15T15:24:57.856Z,3.23
2023-02-15T15:27:44.689Z,3.12
2023-02-15T15:30:52.581Z,3.11
2023-02-15T15:34:15.707Z,3.08
2023-02-15T15:37:25.734Z,2.93
2023-02-15T15:40:36.860Z,2.92
2023-02-15T15:43:37.197Z,2.82
2023-02-15T15:46:20.382Z,2.73
2023-02-15T15:48:48.938Z,2.64
2023-02-15T15:51:22.973Z,2.63
2023-02-15T15:53:54.207Z,2.57
2023-02-15T15:56:26.602Z,2.69
2023-02-15T15:58:58.193Z,2.64
2023-02-15T16:01:31.088Z,2.85
2023-02-15T16:04:01.352Z,2.80
2023-02-15T16:06:32.246Z,2.78
2023-02-15T16:09:13.022Z,2.80
2023-02-15T16:11:42.305Z,2.85
2023-02-15T16:14:15.068Z,2.79
2023-02-15T16:16:53.188Z,2.76
2023-02-15T16:19:26.231Z,2.80
2023-02-15T16:21:57.810Z,2.85
2023-02-15T16:24:57.840Z,2.89
2023-02-15T16:27:38.561Z,2.86
2023-02-15T16:30:24.655Z,2.69
2023-02-15T16:32:57.382Z,2.49
2023-02-15T16:35:25.852Z,2.45
2023-02-15T16:37:54.178Z,2.53
2023-02-15T16:40:36.505Z,2.55
2023-02-15T16:43:07.591Z,2.58
2023-02-15T16:45:38.601Z,2.63
2023-02-15T16:48:14.318Z,2.55
2023-02-15T16:50:50.283Z,2.55
2023-02-15T16:53:23.132Z,2.48
2023-02-15T16:55:55.081Z,2.39
2023-02-15T16:58:30.405Z,2.18
2023-02-15T17:01:01.877Z,2.22
2023-02-15T17:03:32.496Z,2.33
2023-02-15T17:06:03.880Z,2.20
2023-02-15T17:08:35.379Z,2.26
2023-02-15T17:11:22.194Z,2.27
2023-02-15T17:14:15.364Z,2.24
2023-02-15T17:16:49.856Z,2.18
2023-02-15T17:19:24.582Z,2.20
2023-02-15T17:21:56.123Z,2.22
2023-02-15T17:24:36.398Z,2.27
2023-02-15T17:27:12.368Z,2.34
2023-02-15T17:29:43.516Z,2.20
2023-02-15T17:32:19.153Z,2.28
2023-02-15T17:35:01.892Z,2.27
2023-02-15T17:37:33.280Z,2.18
2023-02-15T17:40:09.390Z,2.15
2023-02-15T17:42:37.723Z,2.11
2023-02-15T17:45:07.383Z,2.17
2023-02-15T17:47:36.276Z,2.21
2023-02-15T17:50:08.428Z,2.27
2023-02-15T17:52:38.101Z,2.32
2023-02-15T17:55:32.994Z,2.39
2023-02-15T17:58:02.469Z,2.29
2023-02-15T18:00:49.755Z,2.25
2023-02-15T18:03:36.687Z,2.24
2023-02-15T18:06:25.462Z,2.12
2023-02-15T18:09:12.693Z,2.05
2023-02-15T18:11:42.890Z,2.06
2023-02-15T18:14:12.036Z,2.12
2023-02-15T18:16:43.871Z,2.12
2023-02-15T18:19:16.161Z,2.19
2023-02-15T18:21:47.075Z,2.15
2023-02-15T18:24:20.544Z,2.09
2023-02-15T18:26:49.560Z,2.18
2023-02-15T18:29:17.941Z,2.04
2023-02-15T18:31:49.409Z,1.93
2023-02-15T18:34:26.007Z,1.99
2023-02-15T18:36:56.792Z,1.96
2023-02-15T18:39:28.432Z,1.98
2023-02-15T18:41:57.836Z,2.01
2023-02-15T18:44:27.253Z,1.94
2023-02-15T18:46:55.863Z,1.95
2023-02-15T18:49:24.433Z,2.03
2023-02-15T18:51:55.639Z,2.08
2023-02-15T18:54:26.792Z,2.06
2023-02-15T18:56:57.272Z,2.07
2023-02-15T18:59:28.509Z,2.12
2023-02-15T19:02:00.282Z,2.16
2023-02-15T19:04:29.244Z,2.11
2023-02-15T19:06:58.902Z,2.21
2023-02-15T19:09:28.107Z,2.17
2023-02-15T19:11:57.448Z,2.00
2023-02-15T19:14:29.557Z,1.92
2023-02-15T19:16:58.960Z,1.79
2023-02-15T19:19:28.499Z,1.84
2023-02-15T19:21:57.167Z,1.94
2023-02-15T19:24:37.298Z,1.99
2023-02-15T19:27:07.994Z,2.06
2023-02-15T19:29:36.731Z,1.96
2023-02-15T19:32:05.662Z,1.93
2023-02-15T19:34:34.809Z,1.78
2023-02-15T19:37:03.474Z,1.87
2023-02-15T19:39:38.950Z,1.90
2023-02-15T19:42:11.096Z,1.96
2023-02-15T19:44:43.777Z,1.99
2023-02-15T19:47:13.590Z,2.05
2023-02-15T19:49:42.302Z,2.06
2023-02-15T19:52:17.458Z,2.09
2023-02-15T19:54:49.182Z,1.99
2023-02-15T19:57:17.961Z,1.85
2023-02-15T19:59:46.320Z,1.86
2023-02-15T20:02:15.625Z,1.80
2023-02-15T20:04:44.459Z,1.78
2023-02-15T20:07:23.228Z,1.82
2023-02-15T20:09:53.364Z,1.83
2023-02-15T20:12:23.838Z,1.83
2023-02-15T20:14:53.684Z,1.88
2023-02-15T20:17:22.003Z,1.94
2023-02-15T20:19:50.966Z,1.93
2023-02-15T20:22:23.735Z,1.96
2023-02-15T20:24:55.609Z,1.99
2023-02-15T20:27:24.809Z,1.87
2023-02-15T20:29:56.702Z,1.79
2023-02-15T20:32:26.015Z,1.82
2023-02-15T20:34:54.642Z,1.80
2023-02-15T20:37:26.390Z,1.79
2023-02-15T20:39:56.415Z,1.75
2023-02-15T20:42:25.456Z,1.68
2023-02-15T20:44:53.787Z,1.56
2023-02-15T20:47:22.645Z,1.53
2023-02-15T20:49:51.608Z,1.61
2023-02-15T20:52:21.729Z,1.60
2023-02-15T20:54:50.769Z,1.59
2023-02-15T20:57:20.447Z,1.60
2023-02-15T20:59:49.096Z,1.57
2023-02-15T21:02:20.563Z,1.42
2023-02-15T21:04:48.919Z,1.46
2023-02-15T21:07:18.497Z,1.52
2023-02-15T21:09:47.964Z,1.60
2023-02-15T21:12:18.789Z,1.53
2023-02-15T21:14:49.186Z,1.56
2023-02-15T21:17:18.790Z,1.59
2023-02-15T21:19:47.190Z,1.60
2023-02-15T21:22:17.582Z,1.52
2023-02-15T21:24:50.317Z,1.48
2023-02-15T21:27:19.470Z,1.38
2023-02-15T21:29:49.229Z,1.46
2023-02-15T21:32:19.283Z,1.53
2023-02-15T21:34:47.707Z,1.52
2023-02-15T21:37:29.486Z,1.47
2023-02-15T21:39:57.930Z,1.38
2023-02-15T21:42:46.745Z,1.40
2023-02-15T21:45:35.300Z,1.32
2023-02-15T21:48:04.472Z,1.23
2023-02-15T21:50:50.884Z,1.27
2023-02-15T21:53:23.337Z,1.27
2023-02-15T21:55:52.959Z,1.36
2023-02-15T21:58:24.585Z,1.41
2023-02-15T22:00:55.745Z,1.42
2023-02-15T22:03:26.087Z,1.42
2023-02-15T22:05:54.434Z,1.35
2023-02-15T22:08:23.022Z,1.36
2023-02-15T22:10:51.950Z,1.35
2023-02-15T22:13:27.587Z,1.26
2023-02-15T22:15:58.368Z,1.09
2023-02-15T22:18:33.381Z,0.99
2023-02-15T22:21:04.573Z,1.00
2023-02-15T22:23:33.130Z,0.92
2023-02-15T22:26:06.328Z,0.98
2023-02-15T22:28:36.974Z,0.95
2023-02-15T22:31:11.594Z,0.93
2023-02-15T22:33:40.577Z,0.88
2023-02-15T22:36:22.931Z,0.89
2023-02-15T22:38:51.313Z,0.83
2023-02-15T22:41:21.222Z,0.79
2023-02-15T22:43:50.408Z,0.80
2023-02-15T22:46:22.693Z,0.77
2023-02-15T22:48:51.897Z,0.67
2023-02-15T22:51:22.575Z,0.65
2023-02-15T22:53:52.241Z,0.70
2023-02-15T22:56:27.350Z,0.69
2023-02-15T22:59:01.458Z,0.75
2023-02-15T23:01:34.179Z,0.70
2023-02-15T23:04:04.230Z,0.66
2023-02-15T23:06:35.340Z,0.66
2023-02-15T23:09:05.094Z,0.68
2023-02-15T23:11:53.009Z,0.73
2023-02-15T23:14:28.140Z,0.75
2023-02-15T23:16:58.025Z,0.79
2023-02-15T23:19:27.737Z,0.73
2023-02-15T23:21:56.370Z,0.73
2023-02-15T23:24:28.430Z,0.72
2023-02-15T23:27:17.886Z,0.60
2023-02-15T23:29:46.263Z,0.55
2023-02-15T23:32:17.328Z,0.63
2023-02-15T23:34:45.765Z,0.63
2023-02-15T23:37:15.794Z,0.66
2023-02-15T23:40:01.673Z,0.71
2023-02-15T23:42:34.706Z,0.73
2023-02-15T23:45:03.789Z,0.69
2023-02-15T23:47:53.933Z,0.64
2023-02-15T23:50:28.127Z,0.65
2023-02-15T23:52:58.847Z,0.73
2023-02-15T23:55:35.939Z,0.73
2023-02-15T23:58:06.629Z,0.60
